sensor_id;sensor_type;location;lat;lon;timestamp;pressure;altitude;pressure_sealevel;temperature;humidity
57374;BME280;43964;53.890;25.340;2023-05-10T00:01:43;1032.8;;;8.4;40.4
57374;BME280;43964;53.890;25.340;2023-05-10T00:06:47;1032.8;;;8.4;40.5
57374;BME280;43964;53.890;25.340;2023-05-10T00:11:23;1032.9;;;8.3;41
57374;BME280;43964;53.890;25.340;2023-05-10T00:16:59;1032.9;;;8.2;41.6
57374;BME280;43964;53.890;25.340;2023-05-10T00:21:47;1032.9;;;8.2;41.9
57374;BME280;43964;53.890;25.340;2023-05-10T00:27:09;1032.9;;;8.1;42.1
57374;BME280;43964;53.890;25.340;2023-05-10T00:31:49;1032.9;;;8.1;42.3
57374;BME280;43964;53.890;25.340;2023-05-10T00:36:23;1033;;;8;42.3
57374;BME280;43964;53.890;25.340;2023-05-10T00:41:39;1033;;;8;42.3
57374;BME280;43964;53.890;25.340;2023-05-10T00:47:07;1033;;;7.9;42.4
57374;BME280;43964;53.890;25.340;2023-05-10T00:52:07;1032.9;;;7.7;42.5
57374;BME280;43964;53.890;25.340;2023-05-10T00:56:47;1032.9;;;7.6;42.6
57374;BME280;43964;53.890;25.340;2023-05-10T01:01:25;1032.9;;;7.5;42.8
57374;BME280;43964;53.890;25.340;2023-05-10T01:06:33;1032.9;;;7.4;43.3
57374;BME280;43964;53.890;25.340;2023-05-10T01:11:41;1032.9;;;7.4;43.8
57374;BME280;43964;53.890;25.340;2023-05-10T01:16:48;1032.9;;;7.3;44.3
57374;BME280;43964;53.890;25.340;2023-05-10T01:21:26;1032.9;;;7.2;44.7
57374;BME280;43964;53.890;25.340;2023-05-10T01:27:09;1032.9;;;7.1;44.9
57374;BME280;43964;53.890;25.340;2023-05-10T01:32:21;1032.9;;;7.1;44.9
57374;BME280;43964;53.890;25.340;2023-05-10T01:36:24;1032.9;;;7.1;45
57374;BME280;43964;53.890;25.340;2023-05-10T01:41:52;1032.9;;;7.1;45
57374;BME280;43964;53.890;25.340;2023-05-10T01:47:01;1032.9;;;7.1;45
57374;BME280;43964;53.890;25.340;2023-05-10T01:51:57;1032.9;;;7.1;45.2
57374;BME280;43964;53.890;25.340;2023-05-10T01:56:43;1032.9;;;6.9;45.4
57374;BME280;43964;53.890;25.340;2023-05-10T02:02:07;1032.9;;;6.8;46
57374;BME280;43964;53.890;25.340;2023-05-10T02:07:07;1033;;;6.9;46.3
57374;BME280;43964;53.890;25.340;2023-05-10T02:12:07;1032.9;;;6.9;46.5
57374;BME280;43964;53.890;25.340;2023-05-10T02:16:31;1032.9;;;6.9;46.4
57374;BME280;43964;53.890;25.340;2023-05-10T02:22:05;1032.9;;;6.8;46.5
57374;BME280;43964;53.890;25.340;2023-05-10T02:26:57;1032.9;;;6.8;46.2
57374;BME280;43964;53.890;25.340;2023-05-10T02:31:23;1032.9;;;7;45.9
57374;BME280;43964;53.890;25.340;2023-05-10T02:36:23;1032.9;;;7.1;45.9
57374;BME280;43964;53.890;25.340;2023-05-10T02:42:05;1032.9;;;7.3;45.7
57374;BME280;43964;53.890;25.340;2023-05-10T02:46:33;1032.9;;;7.4;45.6
57374;BME280;43964;53.890;25.340;2023-05-10T02:52:07;1032.9;;;7.5;45.6
57374;BME280;43964;53.890;25.340;2023-05-10T02:57:07;1032.9;;;7.6;45.7
57374;BME280;43964;53.890;25.340;2023-05-10T03:01:23;1032.9;;;7.7;45.8
57374;BME280;43964;53.890;25.340;2023-05-10T03:06:31;1032.9;;;7.8;45.7
57374;BME280;43964;53.890;25.340;2023-05-10T03:11:28;1032.9;;;8;45.7
57374;BME280;43964;53.890;25.340;2023-05-10T03:16:34;1032.9;;;8.1;45.5
57374;BME280;43964;53.890;25.340;2023-05-10T03:21:59;1032.9;;;8.4;45.2
57374;BME280;43964;53.890;25.340;2023-05-10T03:26:24;1032.8;;;9.2;44.3
57374;BME280;43964;53.890;25.340;2023-05-10T03:31:23;1032.8;;;9.6;44
57374;BME280;43964;53.890;25.340;2023-05-10T03:36:51;1032.8;;;10.2;43.4
57374;BME280;43964;53.890;25.340;2023-05-10T03:42:07;1032.8;;;10.8;42.7
57374;BME280;43964;53.890;25.340;2023-05-10T03:46:39;1032.7;;;12.3;41.1
57374;BME280;43964;53.890;25.340;2023-05-10T03:51:43;1032.6;;;15.8;37
57374;BME280;43964;53.890;25.340;2023-05-10T03:56:23;1032.7;;;17.7;34.8
57374;BME280;43964;53.890;25.340;2023-05-10T04:02:07;1032.6;;;21.3;30.8
57374;BME280;43964;53.890;25.340;2023-05-10T04:06:23;1032.5;;;23.3;28.6
57374;BME280;43964;53.890;25.340;2023-05-10T04:11:39;1032.6;;;24.9;27.3
57374;BME280;43964;53.890;25.340;2023-05-10T04:16:51;1032.7;;;25.7;27.2
57374;BME280;43964;53.890;25.340;2023-05-10T04:21:33;1032.6;;;27.5;25.6
57374;BME280;43964;53.890;25.340;2023-05-10T04:26:33;1032.6;;;30;23.4
57374;BME280;43964;53.890;25.340;2023-05-10T04:31:57;1032.5;;;32.4;21.4
57374;BME280;43964;53.890;25.340;2023-05-10T04:37:07;1032.5;;;34.1;19.8
57374;BME280;43964;53.890;25.340;2023-05-10T04:41:23;1032.5;;;35.1;18.6
57374;BME280;43964;53.890;25.340;2023-05-10T04:46:49;1032.4;;;36.2;16.2
57374;BME280;43964;53.890;25.340;2023-05-10T04:51:57;1032.4;;;37.2;15
57374;BME280;43964;53.890;25.340;2023-05-10T04:56:55;1032.4;;;38.3;14
57374;BME280;43964;53.890;25.340;2023-05-10T05:01:41;1032.5;;;39.3;13.2
57374;BME280;43964;53.890;25.340;2023-05-10T05:06:25;1032.4;;;40.2;12.4
57374;BME280;43964;53.890;25.340;2023-05-10T05:12:03;1032.5;;;40.5;12
57374;BME280;43964;53.890;25.340;2023-05-10T05:17:05;1032.5;;;40.3;12
57374;BME280;43964;53.890;25.340;2023-05-10T05:21:23;1032.6;;;38.8;12.3
57374;BME280;43964;53.890;25.340;2023-05-10T05:27:05;1032.7;;;34.2;14.3
57374;BME280;43964;53.890;25.340;2023-05-10T05:31:55;1032.8;;;29.8;16.5
57374;BME280;43964;53.890;25.340;2023-05-10T05:36:35;1032.8;;;27.4;17.8
57374;BME280;43964;53.890;25.340;2023-05-10T05:41:23;1032.9;;;25.6;18.9
57374;BME280;43964;53.890;25.340;2023-05-10T05:47:05;1033;;;23.8;20.3
57374;BME280;43964;53.890;25.340;2023-05-10T05:51:31;1033;;;22.3;21.2
57374;BME280;43964;53.890;25.340;2023-05-10T05:56:55;1033;;;20.8;21.9
57374;BME280;43964;53.890;25.340;2023-05-10T06:02:05;1033;;;20.2;23
57374;BME280;43964;53.890;25.340;2023-05-10T06:06:33;1033;;;19.9;23.4
57374;BME280;43964;53.890;25.340;2023-05-10T06:11:39;1032.9;;;19.8;23.6
57374;BME280;43964;53.890;25.340;2023-05-10T06:16:45;1033;;;19.8;23.5
57374;BME280;43964;53.890;25.340;2023-05-10T06:21:37;1033;;;19.8;23.6
57374;BME280;43964;53.890;25.340;2023-05-10T06:26:55;1033;;;19.7;24
57374;BME280;43964;53.890;25.340;2023-05-10T06:31:45;1033;;;19.9;24.1
57374;BME280;43964;53.890;25.340;2023-05-10T06:41:47;1032.9;;;19.9;24.8
57374;BME280;43964;53.890;25.340;2023-05-10T06:47:03;1033;;;19.9;24.8
57374;BME280;43964;53.890;25.340;2023-05-10T06:51:31;1032.9;;;19.7;25
57374;BME280;43964;53.890;25.340;2023-05-10T06:56:37;1032.9;;;20.1;25
57374;BME280;43964;53.890;25.340;2023-05-10T07:01:45;1032.9;;;20.4;25
57374;BME280;43964;53.890;25.340;2023-05-10T07:07:01;1032.8;;;20.7;24.8
57374;BME280;43964;53.890;25.340;2023-05-10T07:11:51;1032.8;;;20.8;24.6
57374;BME280;43964;53.890;25.340;2023-05-10T07:16:29;1032.7;;;21;24.4
57374;BME280;43964;53.890;25.340;2023-05-10T07:22:05;1032.7;;;21.1;24
57374;BME280;43964;53.890;25.340;2023-05-10T07:26:45;1032.7;;;21.4;23.6
57374;BME280;43964;53.890;25.340;2023-05-10T07:31:31;1032.7;;;21.4;23.5
57374;BME280;43964;53.890;25.340;2023-05-10T07:36:29;1032.6;;;21.7;23
57374;BME280;43964;53.890;25.340;2023-05-10T07:42:05;1032.6;;;22;22.8
57374;BME280;43964;53.890;25.340;2023-05-10T07:46:23;1032.6;;;22.3;22.3
57374;BME280;43964;53.890;25.340;2023-05-10T07:52:03;1032.6;;;22.4;21.9
57374;BME280;43964;53.890;25.340;2023-05-10T07:57:03;1032.7;;;22;21.7
57374;BME280;43964;53.890;25.340;2023-05-10T08:01:32;1032.6;;;21.7;21.7
57374;BME280;43964;53.890;25.340;2023-05-10T08:06:39;1032.5;;;21.4;21.7
57374;BME280;43964;53.890;25.340;2023-05-10T08:11:53;1032.5;;;21;21.9
57374;BME280;43964;53.890;25.340;2023-05-10T08:17:03;1032.5;;;21;21.8
57374;BME280;43964;53.890;25.340;2023-05-10T08:22:03;1032.5;;;21.1;21.4
57374;BME280;43964;53.890;25.340;2023-05-10T08:26:23;1032.5;;;20.9;21.5
57374;BME280;43964;53.890;25.340;2023-05-10T08:32:05;1032.4;;;21;21.4
57374;BME280;43964;53.890;25.340;2023-05-10T08:36:55;1032.5;;;21.1;21.2
57374;BME280;43964;53.890;25.340;2023-05-10T08:41:31;1032.4;;;20.9;20.9
57374;BME280;43964;53.890;25.340;2023-05-10T08:46:40;1032.4;;;20.7;21.1
57374;BME280;43964;53.890;25.340;2023-05-10T08:52:05;1032.4;;;20.5;21.3
57374;BME280;43964;53.890;25.340;2023-05-10T08:56:23;1032.4;;;20.6;21.4
57374;BME280;43964;53.890;25.340;2023-05-10T09:01:39;1032.4;;;20.5;21.3
57374;BME280;43964;53.890;25.340;2023-05-10T09:07:03;1032.3;;;20.6;21.4
57374;BME280;43964;53.890;25.340;2023-05-10T09:11:31;1032.2;;;20.8;21.4
57374;BME280;43964;53.890;25.340;2023-05-10T09:16:39;1032.3;;;21.1;21.1
57374;BME280;43964;53.890;25.340;2023-05-10T09:21:46;1032.3;;;21;21
57374;BME280;43964;53.890;25.340;2023-05-10T09:26:23;1032.2;;;21.4;21
57374;BME280;43964;53.890;25.340;2023-05-10T09:31:55;1032.2;;;21.5;20.6
57374;BME280;43964;53.890;25.340;2023-05-10T09:36:53;1032.3;;;20.9;20.4
57374;BME280;43964;53.890;25.340;2023-05-10T09:42:02;1032.2;;;21;20.3
57374;BME280;43964;53.890;25.340;2023-05-10T09:46:49;1032.3;;;21.1;20.3
57374;BME280;43964;53.890;25.340;2023-05-10T09:52:04;1032.2;;;21.2;20.3
57374;BME280;43964;53.890;25.340;2023-05-10T09:56:38;1032.1;;;21.7;20.2
57374;BME280;43964;53.890;25.340;2023-05-10T10:01:25;1032;;;22.1;20
57374;BME280;43964;53.890;25.340;2023-05-10T10:06:39;1032;;;22.4;19.8
57374;BME280;43964;53.890;25.340;2023-05-10T10:12:05;1032.1;;;22.4;19.5
57374;BME280;43964;53.890;25.340;2023-05-10T10:16:37;1032;;;22.5;19.1
57374;BME280;43964;53.890;25.340;2023-05-10T10:21:37;1031.9;;;22.4;18.8
57374;BME280;43964;53.890;25.340;2023-05-10T10:27:08;1031.9;;;22.4;18.9
57374;BME280;43964;53.890;25.340;2023-05-10T10:31:45;1031.9;;;22.3;18.9
57374;BME280;43964;53.890;25.340;2023-05-10T10:36:23;1031.8;;;22.2;19
57374;BME280;43964;53.890;25.340;2023-05-10T10:41:40;1031.8;;;22.2;19
57374;BME280;43964;53.890;25.340;2023-05-10T10:47:05;1031.8;;;22.1;19
57374;BME280;43964;53.890;25.340;2023-05-10T10:51:23;1031.7;;;22;19.1
57374;BME280;43964;53.890;25.340;2023-05-10T10:57:10;1031.6;;;22;19.2
57374;BME280;43964;53.890;25.340;2023-05-10T11:02:03;1031.7;;;21.9;19
57374;BME280;43964;53.890;25.340;2023-05-10T11:06:28;1031.7;;;21.8;19
57374;BME280;43964;53.890;25.340;2023-05-10T11:11:31;1031.6;;;21.8;18.9
57374;BME280;43964;53.890;25.340;2023-05-10T11:16:53;1031.5;;;22;18.9
57374;BME280;43964;53.890;25.340;2023-05-10T11:21:48;1031.5;;;22.1;18.6
57374;BME280;43964;53.890;25.340;2023-05-10T11:26:55;1031.5;;;22.1;18.7
57374;BME280;43964;53.890;25.340;2023-05-10T11:31:55;1031.4;;;22.1;18.8
57374;BME280;43964;53.890;25.340;2023-05-10T11:37:03;1031.5;;;22.3;18.8
57374;BME280;43964;53.890;25.340;2023-05-10T11:41:48;1031.4;;;22.2;18.8
57374;BME280;43964;53.890;25.340;2023-05-10T11:46:24;1031.4;;;22;18.8
57374;BME280;43964;53.890;25.340;2023-05-10T11:51:24;1031.4;;;21.9;18.8
57374;BME280;43964;53.890;25.340;2023-05-10T11:57:03;1031.3;;;21.9;18.9
57374;BME280;43964;53.890;25.340;2023-05-10T12:01:31;1031.3;;;21.5;19
57374;BME280;43964;53.890;25.340;2023-05-10T12:06:55;1031.3;;;21.4;19
57374;BME280;43964;53.890;25.340;2023-05-10T12:11:56;1031.2;;;21.4;19.1
57374;BME280;43964;53.890;25.340;2023-05-10T12:16:32;1031;;;21.7;19.1
57374;BME280;43964;53.890;25.340;2023-05-10T12:21:39;1031;;;21.9;19.1
57374;BME280;43964;53.890;25.340;2023-05-10T12:26:37;1031;;;21.7;19
57374;BME280;43964;53.890;25.340;2023-05-10T12:31:23;1031.2;;;21.4;19.2
57374;BME280;43964;53.890;25.340;2023-05-10T12:36:49;1031.2;;;21.4;19.3
57374;BME280;43964;53.890;25.340;2023-05-10T12:41:47;1031.1;;;21.4;19.2
57374;BME280;43964;53.890;25.340;2023-05-10T12:46:23;1031.1;;;21.4;19.2
57374;BME280;43964;53.890;25.340;2023-05-10T12:51:47;1031;;;21.5;19.2
57374;BME280;43964;53.890;25.340;2023-05-10T12:57:03;1031;;;21.5;19.1
57374;BME280;43964;53.890;25.340;2023-05-10T13:01:37;1030.9;;;21.5;19.2
57374;BME280;43964;53.890;25.340;2023-05-10T13:06:43;1031;;;21.5;19.2
57374;BME280;43964;53.890;25.340;2023-05-10T13:11:33;1031;;;21.2;19.3
57374;BME280;43964;53.890;25.340;2023-05-10T13:17:07;1030.9;;;21.2;19.3
57374;BME280;43964;53.890;25.340;2023-05-10T13:21:23;1030.8;;;21.3;19.4
57374;BME280;43964;53.890;25.340;2023-05-10T13:26:39;1030.9;;;21.2;19.2
57374;BME280;43964;53.890;25.340;2023-05-10T13:32:07;1030.9;;;20.8;19.3
57374;BME280;43964;53.890;25.340;2023-05-10T13:36:47;1030.8;;;20.7;19.3
57374;BME280;43964;53.890;25.340;2023-05-10T13:41:39;1030.8;;;20.9;19.3
57374;BME280;43964;53.890;25.340;2023-05-10T13:46:37;1030.7;;;20.9;19.2
57374;BME280;43964;53.890;25.340;2023-05-10T13:52:05;1030.6;;;21.1;19.2
57374;BME280;43964;53.890;25.340;2023-05-10T13:56:36;1030.6;;;21.1;19.2
57374;BME280;43964;53.890;25.340;2023-05-10T14:02:06;1030.5;;;20.8;19.3
57374;BME280;43964;53.890;25.340;2023-05-10T14:07:05;1030.5;;;20.7;19.3
57374;BME280;43964;53.890;25.340;2023-05-10T14:11:33;1030.5;;;20.7;19.4
57374;BME280;43964;53.890;25.340;2023-05-10T14:16:42;1030.4;;;20.8;19.5
57374;BME280;43964;53.890;25.340;2023-05-10T14:21:55;1030.3;;;20.9;19.4
57374;BME280;43964;53.890;25.340;2023-05-10T14:26:49;1030.4;;;20.9;19.3
57374;BME280;43964;53.890;25.340;2023-05-10T14:31:57;1030.4;;;20.9;19.5
57374;BME280;43964;53.890;25.340;2023-05-10T14:36:23;1030.4;;;20.9;19.4
57374;BME280;43964;53.890;25.340;2023-05-10T14:42:05;1030.4;;;20.8;19.4
57374;BME280;43964;53.890;25.340;2023-05-10T14:46:50;1030.4;;;20.7;19.4
57374;BME280;43964;53.890;25.340;2023-05-10T14:51:37;1030.4;;;20.8;19.4
57374;BME280;43964;53.890;25.340;2023-05-10T14:56:55;1030.3;;;20.8;19.4
57374;BME280;43964;53.890;25.340;2023-05-10T15:02:06;1030.3;;;20.7;19.3
57374;BME280;43964;53.890;25.340;2023-05-10T15:06:32;1030.3;;;20.6;19.3
57374;BME280;43964;53.890;25.340;2023-05-10T15:11:55;1030.3;;;20.6;19.5
57374;BME280;43964;53.890;25.340;2023-05-10T15:16:56;1030.2;;;20.5;19.6
57374;BME280;43964;53.890;25.340;2023-05-10T15:21:23;1030.2;;;20.6;19.5
57374;BME280;43964;53.890;25.340;2023-05-10T15:26:49;1030.2;;;20.7;19.5
57374;BME280;43964;53.890;25.340;2023-05-10T15:31:48;1030.2;;;20.6;19.5
57374;BME280;43964;53.890;25.340;2023-05-10T15:36:23;1030.2;;;20.4;19.5
57374;BME280;43964;53.890;25.340;2023-05-10T15:41:57;1030.1;;;20.2;19.6
57374;BME280;43964;53.890;25.340;2023-05-10T15:47:05;1030.2;;;20;19.7
57374;BME280;43964;53.890;25.340;2023-05-10T15:51:32;1030.2;;;19.9;19.9
57374;BME280;43964;53.890;25.340;2023-05-10T15:56:49;1030.2;;;19.7;20
57374;BME280;43964;53.890;25.340;2023-05-10T16:02:06;1030.2;;;19.6;20
57374;BME280;43964;53.890;25.340;2023-05-10T16:06:40;1030.1;;;19.5;20
57374;BME280;43964;53.890;25.340;2023-05-10T16:11:42;1030;;;19.4;20.2
57374;BME280;43964;53.890;25.340;2023-05-10T16:16:32;1030.1;;;19.3;20.5
57374;BME280;43964;53.890;25.340;2023-05-10T16:22:06;1030.1;;;19.2;20.8
57374;BME280;43964;53.890;25.340;2023-05-10T16:26:39;1030;;;19.1;21
57374;BME280;43964;53.890;25.340;2023-05-10T16:31:30;1030.1;;;19.1;21.2
57374;BME280;43964;53.890;25.340;2023-05-10T16:37:05;1030.1;;;19;21.2
57374;BME280;43964;53.890;25.340;2023-05-10T16:41:47;1030.1;;;18.9;21.2
57374;BME280;43964;53.890;25.340;2023-05-10T16:46:23;1030.1;;;18.9;21.3
57374;BME280;43964;53.890;25.340;2023-05-10T16:51:24;1030.1;;;18.8;21.5
57374;BME280;43964;53.890;25.340;2023-05-10T16:57:06;1030.1;;;18.7;21.6
57374;BME280;43964;53.890;25.340;2023-05-10T17:01:38;1030.2;;;18.5;21.7
57374;BME280;43964;53.890;25.340;2023-05-10T17:07:06;1030.2;;;18.4;21.9
57374;BME280;43964;53.890;25.340;2023-05-10T17:12:06;1030.3;;;18.3;22.1
57374;BME280;43964;53.890;25.340;2023-05-10T17:16:34;1030.3;;;18.1;22.3
57374;BME280;43964;53.890;25.340;2023-05-10T17:21:58;1030.3;;;18;22.4
57374;BME280;43964;53.890;25.340;2023-05-10T17:26:36;1030.4;;;17.7;22.8
57374;BME280;43964;53.890;25.340;2023-05-10T17:31:50;1030.3;;;17.6;23.3
57374;BME280;43964;53.890;25.340;2023-05-10T17:36:56;1030.4;;;17.4;23.5
57374;BME280;43964;53.890;25.340;2023-05-10T17:41:46;1030.4;;;17.2;23.7
57374;BME280;43964;53.890;25.340;2023-05-10T17:47:06;1030.5;;;17.1;23.9
57374;BME280;43964;53.890;25.340;2023-05-10T17:51:50;1030.6;;;16.9;23.9
57374;BME280;43964;53.890;25.340;2023-05-10T17:56:24;1030.7;;;16.8;24
57374;BME280;43964;53.890;25.340;2023-05-10T18:01:24;1030.7;;;16.7;24.2
57374;BME280;43964;53.890;25.340;2023-05-10T18:07:06;1030.8;;;16.5;24.5
57374;BME280;43964;53.890;25.340;2023-05-10T18:11:24;1030.8;;;16.4;24.7
57374;BME280;43964;53.890;25.340;2023-05-10T18:16:56;1030.8;;;16.2;24.9
57374;BME280;43964;53.890;25.340;2023-05-10T18:21:54;1030.8;;;16.1;25.3
57374;BME280;43964;53.890;25.340;2023-05-10T18:26:32;1030.9;;;15.9;25.7
57374;BME280;43964;53.890;25.340;2023-05-10T18:31:50;1031;;;15.7;25.9
57374;BME280;43964;53.890;25.340;2023-05-10T18:36:46;1031.1;;;15.6;26.2
57374;BME280;43964;53.890;25.340;2023-05-10T18:41:24;1031.2;;;15.4;26.4
57374;BME280;43964;53.890;25.340;2023-05-10T18:46:58;1031.3;;;15.2;26.5
57374;BME280;43964;53.890;25.340;2023-05-10T18:52:06;1031.3;;;15;26.7
57374;BME280;43964;53.890;25.340;2023-05-10T18:56:34;1031.4;;;14.7;27.1
57374;BME280;43964;53.890;25.340;2023-05-10T19:02:06;1031.4;;;14.5;27.3
57374;BME280;43964;53.890;25.340;2023-05-10T19:06:58;1031.5;;;14.3;27.6
57374;BME280;43964;53.890;25.340;2023-05-10T19:11:56;1031.5;;;14.1;27.9
57374;BME280;43964;53.890;25.340;2023-05-10T19:16:24;1031.5;;;13.9;28.5
57374;BME280;43964;53.890;25.340;2023-05-10T19:21:56;1031.5;;;13.7;29.1
57374;BME280;43964;53.890;25.340;2023-05-10T19:27:06;1031.6;;;13.5;29.7
57374;BME280;43964;53.890;25.340;2023-05-10T19:32:10;1031.7;;;13.3;30.3
57374;BME280;43964;53.890;25.340;2023-05-10T19:36:24;1031.7;;;13;30.9
57374;BME280;43964;53.890;25.340;2023-05-10T19:42:10;1031.7;;;12.8;31.2
57374;BME280;43964;53.890;25.340;2023-05-10T19:47:00;1031.8;;;12.5;31.2
57374;BME280;43964;53.890;25.340;2023-05-10T19:51:34;1031.8;;;12.4;31.3
57374;BME280;43964;53.890;25.340;2023-05-10T19:56:32;1031.8;;;12.2;31.5
57374;BME280;43964;53.890;25.340;2023-05-10T20:02:06;1031.8;;;12.1;31.8
57374;BME280;43964;53.890;25.340;2023-05-10T20:06:24;1031.8;;;11.9;32
57374;BME280;43964;53.890;25.340;2023-05-10T20:12:06;1031.8;;;11.8;32.2
57374;BME280;43964;53.890;25.340;2023-05-10T20:17:06;1031.9;;;11.6;32.7
57374;BME280;43964;53.890;25.340;2023-05-10T20:21:24;1031.8;;;11.6;32.8
57374;BME280;43964;53.890;25.340;2023-05-10T20:26:34;1031.8;;;11.5;32.9
57374;BME280;43964;53.890;25.340;2023-05-10T20:31:58;1031.8;;;11.4;33.4
57374;BME280;43964;53.890;25.340;2023-05-10T20:36:52;1031.9;;;11.4;34
57374;BME280;43964;53.890;25.340;2023-05-10T20:41:56;1031.9;;;11.4;34.3
57374;BME280;43964;53.890;25.340;2023-05-10T20:46:24;1031.8;;;11.3;34.7
57374;BME280;43964;53.890;25.340;2023-05-10T20:52:00;1031.9;;;11.2;35.1
57374;BME280;43964;53.890;25.340;2023-05-10T20:56:52;1031.9;;;11.1;35.3
57374;BME280;43964;53.890;25.340;2023-05-10T21:01:24;1031.9;;;11;35.2
57374;BME280;43964;53.890;25.340;2023-05-10T21:06:40;1032;;;10.9;35.3
57374;BME280;43964;53.890;25.340;2023-05-10T21:12:04;1032;;;10.9;35.4
57374;BME280;43964;53.890;25.340;2023-05-10T21:16:40;1032;;;10.9;35.5
57374;BME280;43964;53.890;25.340;2023-05-10T21:22:06;1032;;;10.9;35.5
57374;BME280;43964;53.890;25.340;2023-05-10T21:26:26;1032;;;10.9;35.6
57374;BME280;43964;53.890;25.340;2023-05-10T21:31:24;1031.9;;;10.9;35.9
57374;BME280;43964;53.890;25.340;2023-05-10T21:37:06;1031.9;;;10.8;36.5
57374;BME280;43964;53.890;25.340;2023-05-10T21:41:48;1032;;;10.7;36.9
57374;BME280;43964;53.890;25.340;2023-05-10T21:46:34;1032;;;10.7;37.1
57374;BME280;43964;53.890;25.340;2023-05-10T21:51:58;1032;;;10.6;37.2
57374;BME280;43964;53.890;25.340;2023-05-10T21:57:08;1032;;;10.6;37.4
57374;BME280;43964;53.890;25.340;2023-05-10T22:01:48;1032;;;10.5;37.3
57374;BME280;43964;53.890;25.340;2023-05-10T22:06:50;1032;;;10.5;37.3
57374;BME280;43964;53.890;25.340;2023-05-10T22:12:00;1032;;;10.5;37.4
57374;BME280;43964;53.890;25.340;2023-05-10T22:16:56;1032;;;10.5;37.5
57374;BME280;43964;53.890;25.340;2023-05-10T22:21:42;1032;;;10.3;37.7
57374;BME280;43964;53.890;25.340;2023-05-10T22:26:56;1032;;;10.2;38.3
57374;BME280;43964;53.890;25.340;2023-05-10T22:32:06;1032.1;;;10;39.1
57374;BME280;43964;53.890;25.340;2023-05-10T22:37:06;1032.2;;;9.8;39.4
57374;BME280;43964;53.890;25.340;2023-05-10T22:41:24;1032.3;;;9.7;39.5
57374;BME280;43964;53.890;25.340;2023-05-10T22:46:48;1032.3;;;9.6;39.6
57374;BME280;43964;53.890;25.340;2023-05-10T22:51:50;1032.3;;;9.6;39.7
57374;BME280;43964;53.890;25.340;2023-05-10T22:56:34;1032.3;;;9.5;39.6
57374;BME280;43964;53.890;25.340;2023-05-10T23:01:24;1032.3;;;9.5;39.7
57374;BME280;43964;53.890;25.340;2023-05-10T23:07:04;1032.3;;;9.5;39.8
57374;BME280;43964;53.890;25.340;2023-05-10T23:11:24;1032.3;;;9.5;39.9
57374;BME280;43964;53.890;25.340;2023-05-10T23:16:54;1032.3;;;9.3;40.1
57374;BME280;43964;53.890;25.340;2023-05-10T23:22:04;1032.3;;;9.1;40.3
57374;BME280;43964;53.890;25.340;2023-05-10T23:26:24;1032.3;;;9;40.9
57374;BME280;43964;53.890;25.340;2023-05-10T23:31:40;1032.3;;;8.8;41.2
57374;BME280;43964;53.890;25.340;2023-05-10T23:36:44;1032.3;;;8.7;41.4
57374;BME280;43964;53.890;25.340;2023-05-10T23:41:32;1032.3;;;8.6;41.6
57374;BME280;43964;53.890;25.340;2023-05-10T23:46:56;1032.3;;;8.5;41.6
57374;BME280;43964;53.890;25.340;2023-05-10T23:51:24;1032.3;;;8.5;41.5
57374;BME280;43964;53.890;25.340;2023-05-10T23:57:02;1032.4;;;8.4;41.5
